createdAt,value
2018-02-27T00:00:00.595Z,66.36
2018-02-27T00:02:28.189Z,64.98
2018-02-27T00:04:55.829Z,65.91
2018-02-27T00:07:23.725Z,66.27
2018-02-27T00:09:51.304Z,65.29
2018-02-27T00:12:18.924Z,65.60
2018-02-27T00:14:46.525Z,66.46
2018-02-27T00:17:14.106Z,66.78
2018-02-27T00:19:41.696Z,66.19
2018-02-27T00:22:09.301Z,66.65
2018-02-27T00:24:36.883Z,66.53
2018-02-27T00:27:05.227Z,67.29
2018-02-27T00:29:32.815Z,68.85
2018-02-27T00:32:00.415Z,68.56
2018-02-27T00:34:28.014Z,68.19
2018-02-27T00:36:55.605Z,68.14
2018-02-27T00:39:23.237Z,68.14
2018-02-27T00:41:50.859Z,68.93
2018-02-27T00:44:18.484Z,69.09
2018-02-27T00:46:46.078Z,69.57
2018-02-27T00:49:14.582Z,69.50
2018-02-27T00:51:42.205Z,69.59
2018-02-27T00:54:09.789Z,68.02
2018-02-27T00:56:37.380Z,68.13
2018-02-27T00:59:04.996Z,67.83
2018-02-27T01:01:32.558Z,67.00
2018-02-27T01:04:00.207Z,67.39
2018-02-27T01:06:27.783Z,68.43
2018-02-27T01:08:55.432Z,68.73
2018-02-27T01:11:23.622Z,69.22
2018-02-27T01:13:51.207Z,69.41
2018-02-27T01:16:18.818Z,69.23
2018-02-27T01:18:46.408Z,69.00
2018-02-27T01:21:14.210Z,69.24
2018-02-27T01:23:41.834Z,68.21
2018-02-27T01:26:09.471Z,68.28
2018-02-27T01:28:37.058Z,68.06
2018-02-27T01:31:05.110Z,67.72
2018-02-27T01:33:32.741Z,68.10
2018-02-27T01:36:00.324Z,68.26
2018-02-27T01:38:27.883Z,68.79
2018-02-27T01:40:55.478Z,69.25
2018-02-27T01:43:23.068Z,69.32
2018-02-27T01:45:50.664Z,69.57
2018-02-27T01:48:18.289Z,69.22
2018-02-27T01:50:45.972Z,69.33
2018-02-27T01:53:13.898Z,68.96
2018-02-27T01:55:41.519Z,68.84
2018-02-27T01:58:09.174Z,68.48
2018-02-27T02:00:36.765Z,69.10
2018-02-27T02:03:04.760Z,68.75
2018-02-27T02:05:32.365Z,69.00
2018-02-27T02:07:59.930Z,68.62
2018-02-27T02:10:27.850Z,68.56
2018-02-27T02:12:55.474Z,68.83
2018-02-27T02:15:23.110Z,68.71
2018-02-27T02:17:50.961Z,69.08
2018-02-27T02:20:18.578Z,68.57
2018-02-27T02:22:46.201Z,69.27
2018-02-27T02:25:13.959Z,68.99
2018-02-27T02:27:41.591Z,69.54
2018-02-27T02:30:09.191Z,70.09
2018-02-27T02:32:36.777Z,69.88
2018-02-27T02:35:04.445Z,69.38
2018-02-27T02:37:32.043Z,68.07
2018-02-27T02:39:59.623Z,68.58
2018-02-27T02:42:27.296Z,68.33
2018-02-27T02:44:54.904Z,69.12
2018-02-27T02:47:22.727Z,69.26
2018-02-27T02:49:50.338Z,69.61
2018-02-27T02:52:17.998Z,68.54
2018-02-27T02:54:45.571Z,68.44
2018-02-27T02:57:13.824Z,68.24
2018-02-27T02:59:41.428Z,68.57
2018-02-27T03:02:09.077Z,68.51
2018-02-27T03:04:36.656Z,68.69
2018-02-27T03:07:04.870Z,69.08
2018-02-27T03:09:32.689Z,69.08
2018-02-27T03:12:00.680Z,69.82
2018-02-27T03:14:29.331Z,68.94
2018-02-27T03:16:57.483Z,68.76
2018-02-27T03:19:25.159Z,69.22
2018-02-27T03:21:55.031Z,68.58
2018-02-27T03:24:22.597Z,68.80
2018-02-27T03:26:51.464Z,68.22
2018-02-27T03:29:22.146Z,68.10
2018-02-27T03:31:49.819Z,69.20
2018-02-27T03:34:17.570Z,68.77
2018-02-27T03:36:45.160Z,68.20
2018-02-27T03:39:13.982Z,68.25
2018-02-27T03:41:41.924Z,68.40
2018-02-27T03:44:09.565Z,69.06
2018-02-27T03:46:37.165Z,69.53
2018-02-27T03:49:04.842Z,68.91
2018-02-27T03:51:34.003Z,68.73
2018-02-27T03:54:04.121Z,68.53
2018-02-27T03:56:31.819Z,69.05
2018-02-27T03:59:00.463Z,68.62
2018-02-27T04:01:28.105Z,68.43
2018-02-27T04:03:55.719Z,68.04
2018-02-27T04:06:23.309Z,68.45
2018-02-27T04:08:50.894Z,68.67
2018-02-27T04:11:18.486Z,68.32
2018-02-27T04:13:46.084Z,69.24
2018-02-27T04:16:13.769Z,68.38
2018-02-27T04:18:41.390Z,68.11
2018-02-27T04:21:10.312Z,68.15
2018-02-27T04:23:40.086Z,68.33
2018-02-27T04:26:08.023Z,68.60
2018-02-27T04:28:35.664Z,68.71
2018-02-27T04:31:03.289Z,68.64
2018-02-27T04:33:31.154Z,68.09
2018-02-27T04:35:58.821Z,67.85
2018-02-27T04:38:31.361Z,68.82
2018-02-27T04:41:04.455Z,67.84
2018-02-27T04:43:37.633Z,67.96
2018-02-27T04:46:10.169Z,68.46
2018-02-27T04:48:42.282Z,69.07
2018-02-27T04:53:51.952Z,67.74
2018-02-27T04:56:24.648Z,67.72
2018-02-27T04:58:52.274Z,67.53
2018-02-27T05:01:26.189Z,67.77
2018-02-27T05:03:54.416Z,68.12
2018-02-27T05:06:24.615Z,67.45
2018-02-27T05:08:52.323Z,67.75
2018-02-27T05:11:22.359Z,68.42
2018-02-27T05:13:50.127Z,68.54
2018-02-27T05:16:17.760Z,68.31
2018-02-27T05:18:45.379Z,68.52
2018-02-27T05:21:13.543Z,69.15
2018-02-27T05:23:41.129Z,68.99
2018-02-27T05:26:08.811Z,68.90
2018-02-27T05:28:36.454Z,68.83
2018-02-27T05:31:04.088Z,68.46
2018-02-27T05:33:31.705Z,68.87
2018-02-27T05:35:59.508Z,68.09
2018-02-27T05:38:27.105Z,68.64
2018-02-27T05:40:54.691Z,68.57
2018-02-27T05:43:22.924Z,68.00
2018-02-27T05:45:50.552Z,68.58
2018-02-27T05:48:18.151Z,68.50
2018-02-27T05:50:45.742Z,68.82
2018-02-27T05:53:13.421Z,68.34
2018-02-27T05:55:42.099Z,68.08
2018-02-27T05:58:09.728Z,69.23
2018-02-27T06:00:37.300Z,68.96
2018-02-27T06:03:04.926Z,69.44
2018-02-27T06:05:32.578Z,69.60
2018-02-27T06:08:00.180Z,70.20
2018-02-27T06:10:28.031Z,70.18
2018-02-27T06:12:55.729Z,71.24
2018-02-27T06:15:24.410Z,71.58
2018-02-27T06:17:52.087Z,71.79
2018-02-27T06:20:19.649Z,71.72
2018-02-27T06:22:47.290Z,71.89
2018-02-27T06:25:14.914Z,72.25
2018-02-27T06:27:42.528Z,71.56
2018-02-27T06:30:10.125Z,71.77
2018-02-27T06:32:37.732Z,71.37
2018-02-27T06:35:05.678Z,71.62
2018-02-27T06:37:33.271Z,71.24
2018-02-27T06:40:02.676Z,71.52
2018-02-27T06:42:30.280Z,71.23
2018-02-27T06:44:57.919Z,70.15
2018-02-27T06:47:28.099Z,70.71
2018-02-27T06:49:55.683Z,70.02
2018-02-27T06:52:24.501Z,70.15
2018-02-27T06:54:52.095Z,70.32
2018-02-27T06:57:19.754Z,69.99
2018-02-27T06:59:47.441Z,71.15
2018-02-27T07:02:15.035Z,70.44
2018-02-27T07:04:45.157Z,70.48
2018-02-27T07:07:12.798Z,69.05
2018-02-27T07:09:40.398Z,69.18
2018-02-27T07:12:08.034Z,69.09
2018-02-27T07:14:38.723Z,68.21
2018-02-27T07:17:06.504Z,67.81
2018-02-27T07:19:34.108Z,65.93
2018-02-27T07:22:01.698Z,66.63
2018-02-27T07:24:29.305Z,67.16
2018-02-27T07:26:57.482Z,66.74
2018-02-27T07:29:25.418Z,66.11
2018-02-27T07:31:53.302Z,65.32
2018-02-27T07:34:21.497Z,63.76
2018-02-27T07:36:49.078Z,64.68
2018-02-27T07:39:16.703Z,62.90
2018-02-27T07:41:44.450Z,63.51
2018-02-27T07:44:12.064Z,64.02
2018-02-27T07:46:41.218Z,59.82
2018-02-27T07:49:08.958Z,62.01
2018-02-27T07:51:36.531Z,61.89
2018-02-27T07:54:04.600Z,62.35
2018-02-27T07:56:32.180Z,60.85
2018-02-27T07:58:59.780Z,61.00
2018-02-27T08:01:27.373Z,60.76
2018-02-27T08:03:55.009Z,60.33
2018-02-27T08:06:22.577Z,60.70
2018-02-27T08:08:50.177Z,60.33
2018-02-27T08:11:18.299Z,60.13
2018-02-27T08:13:45.896Z,59.85
2018-02-27T08:16:14.811Z,60.00
2018-02-27T08:18:42.345Z,60.07
2018-02-27T08:21:10.815Z,59.66
2018-02-27T08:23:38.410Z,58.75
2018-02-27T08:26:06.032Z,58.27
2018-02-27T08:28:33.647Z,58.29
2018-02-27T08:31:02.216Z,58.10
2018-02-27T08:33:30.844Z,58.00
2018-02-27T08:35:58.472Z,58.53
2018-02-27T08:38:27.348Z,58.42
2018-02-27T08:40:55.012Z,57.89
2018-02-27T08:43:23.044Z,57.96
2018-02-27T08:45:51.061Z,57.88
2018-02-27T08:48:18.694Z,56.35
2018-02-27T08:50:46.289Z,57.41
2018-02-27T08:53:14.526Z,57.04
2018-02-27T08:55:43.023Z,56.12
2018-02-27T08:58:10.709Z,57.92
2018-02-27T09:00:38.381Z,56.87
2018-02-27T09:03:06.119Z,57.40
2018-02-27T09:05:34.034Z,57.34
2018-02-27T09:08:01.620Z,57.56
2018-02-27T09:10:30.478Z,57.41
2018-02-27T09:12:58.111Z,55.22
2018-02-27T09:15:25.728Z,54.89
2018-02-27T09:17:53.319Z,55.58
2018-02-27T09:20:21.193Z,56.53
2018-02-27T09:22:48.672Z,56.82
2018-02-27T09:25:16.389Z,56.61
2018-02-27T09:27:44.034Z,56.68
2018-02-27T09:30:11.698Z,56.04
2018-02-27T09:32:39.310Z,56.75
2018-02-27T09:35:07.179Z,56.62
2018-02-27T09:37:35.189Z,56.48
2018-02-27T09:40:03.146Z,55.25
2018-02-27T09:42:32.082Z,56.19
2018-02-27T09:44:59.745Z,55.31
2018-02-27T09:47:27.332Z,56.12
2018-02-27T09:49:54.915Z,54.12
2018-02-27T09:52:24.953Z,53.33
2018-02-27T09:54:53.466Z,53.95
2018-02-27T09:57:21.063Z,54.62
2018-02-27T09:59:48.706Z,54.55
2018-02-27T10:02:16.306Z,52.91
2018-02-27T10:04:43.953Z,54.53
2018-02-27T10:07:12.027Z,53.97
2018-02-27T10:09:39.690Z,54.33
2018-02-27T10:12:07.354Z,53.73
2018-02-27T10:14:34.999Z,53.00
2018-02-27T10:17:02.630Z,52.77
2018-02-27T10:19:33.238Z,50.52
2018-02-27T10:22:00.970Z,50.57
2018-02-27T10:24:28.604Z,53.60
2018-02-27T10:26:56.192Z,52.96
2018-02-27T10:29:23.972Z,53.70
2018-02-27T10:31:51.934Z,53.73
2018-02-27T10:34:19.529Z,53.00
2018-02-27T10:36:47.186Z,52.95
2018-02-27T10:39:14.786Z,51.71
2018-02-27T10:41:42.387Z,52.43
2018-02-27T10:44:10.124Z,52.86
2018-02-27T10:46:37.707Z,52.62
2018-02-27T10:49:05.851Z,53.66
2018-02-27T10:51:33.504Z,54.72
2018-02-27T10:54:01.127Z,56.66
2018-02-27T10:56:28.885Z,57.40
2018-02-27T10:58:56.525Z,57.33
2018-02-27T11:01:24.152Z,58.15
2018-02-27T11:03:55.739Z,56.94
2018-02-27T11:06:23.878Z,56.08
2018-02-27T11:08:51.503Z,57.78
2018-02-27T11:11:21.552Z,55.09
2018-02-27T11:13:49.197Z,55.75
2018-02-27T11:16:17.151Z,56.48
2018-02-27T11:18:44.913Z,57.36
2018-02-27T11:21:12.834Z,59.86
2018-02-27T11:23:40.408Z,58.62
2018-02-27T11:26:10.923Z,57.94
2018-02-27T11:28:42.033Z,57.62
2018-02-27T11:31:13.556Z,58.58
2018-02-27T11:33:41.520Z,57.22
2018-02-27T11:36:10.646Z,57.31
2018-02-27T11:38:42.630Z,56.58
2018-02-27T11:41:10.786Z,54.88
2018-02-27T11:43:38.861Z,54.86
2018-02-27T11:46:08.224Z,55.15
2018-02-27T11:48:36.537Z,54.99
2018-02-27T11:51:05.549Z,55.13
2018-02-27T11:53:33.986Z,52.87
2018-02-27T11:56:01.684Z,54.29
2018-02-27T11:58:29.292Z,54.67
2018-02-27T12:00:58.902Z,54.39
2018-02-27T12:03:26.600Z,54.44
2018-02-27T12:05:54.222Z,55.66
2018-02-27T12:08:21.907Z,56.28
2018-02-27T12:10:49.536Z,58.33
2018-02-27T12:13:17.375Z,57.71
2018-02-27T12:15:45.228Z,56.99
2018-02-27T12:18:12.805Z,56.17
2018-02-27T12:20:40.431Z,56.44
2018-02-27T12:23:08.612Z,54.02
2018-02-27T12:25:36.551Z,52.68
2018-02-27T12:28:04.147Z,51.67
2018-02-27T12:30:33.869Z,51.05
2018-02-27T12:33:01.500Z,51.70
2018-02-27T12:35:29.104Z,52.21
2018-02-27T12:37:56.745Z,51.10
2018-02-27T12:40:24.360Z,52.59
2018-02-27T12:42:51.960Z,51.44
2018-02-27T12:45:19.614Z,51.62
2018-02-27T12:47:47.203Z,50.49
2018-02-27T12:50:14.839Z,50.35
2018-02-27T12:52:42.448Z,51.32
2018-02-27T12:55:10.680Z,52.93
2018-02-27T12:57:42.320Z,51.98
2018-02-27T13:00:09.933Z,53.26
2018-02-27T13:02:37.588Z,51.89
2018-02-27T13:05:05.224Z,52.90
2018-02-27T13:07:32.957Z,52.46
2018-02-27T13:10:00.616Z,50.14
2018-02-27T13:12:28.370Z,50.86
2018-02-27T13:14:56.098Z,51.81
2018-02-27T13:17:23.808Z,51.85
2018-02-27T13:19:51.578Z,52.51
2018-02-27T13:22:19.928Z,53.70
2018-02-27T13:24:47.540Z,53.95
2018-02-27T13:27:15.552Z,51.30
2018-02-27T13:29:43.141Z,51.50
2018-02-27T13:32:10.851Z,51.65
2018-02-27T13:34:38.462Z,52.13
2018-02-27T13:37:06.376Z,53.85
2018-02-27T13:39:34.432Z,52.68
2018-02-27T13:42:02.084Z,53.02
2018-02-27T13:44:29.791Z,52.43
2018-02-27T13:46:57.415Z,50.70
2018-02-27T13:49:25.535Z,52.07
2018-02-27T13:51:53.185Z,51.55
2018-02-27T13:54:20.787Z,51.51
2018-02-27T13:56:48.407Z,51.33
2018-02-27T13:59:16.024Z,51.36
2018-02-27T14:01:43.639Z,51.79
2018-02-27T14:04:11.270Z,52.58
2018-02-27T14:06:38.868Z,54.12
2018-02-27T14:09:07.460Z,54.60
2018-02-27T14:11:35.090Z,55.80
2018-02-27T14:14:02.675Z,55.47
2018-02-27T14:16:30.296Z,54.41
2018-02-27T14:18:57.908Z,53.78
2018-02-27T14:21:28.030Z,53.50
2018-02-27T14:23:55.777Z,54.86
2018-02-27T14:26:23.379Z,54.63
2018-02-27T14:28:50.979Z,55.68
2018-02-27T14:31:19.768Z,57.76
2018-02-27T14:33:47.410Z,58.35
2018-02-27T14:36:14.994Z,55.24
2018-02-27T14:38:42.585Z,56.43
2018-02-27T14:41:10.896Z,57.16
2018-02-27T14:43:38.464Z,58.89
2018-02-27T14:46:06.077Z,58.34
2018-02-27T14:48:33.694Z,58.93
2018-02-27T14:51:01.273Z,60.43
2018-02-27T14:53:30.436Z,60.51
2018-02-27T14:55:58.087Z,59.94
2018-02-27T14:58:25.974Z,59.88
2018-02-27T15:00:53.595Z,59.91
2018-02-27T15:03:25.390Z,57.66
2018-02-27T15:05:53.676Z,59.50
2018-02-27T15:08:21.319Z,59.40
2018-02-27T15:10:48.934Z,60.11
2018-02-27T15:13:16.725Z,60.02
2018-02-27T15:15:47.310Z,60.47
2018-02-27T15:18:15.012Z,60.05
2018-02-27T15:20:42.620Z,60.58
2018-02-27T15:23:10.380Z,60.92
2018-02-27T15:25:37.984Z,61.21
2018-02-27T15:28:10.852Z,61.05
2018-02-27T15:30:38.464Z,61.41
2018-02-27T15:33:06.408Z,62.60
2018-02-27T15:35:34.233Z,63.27
2018-02-27T15:38:01.839Z,63.60
2018-02-27T15:40:29.419Z,64.08
2018-02-27T15:42:57.009Z,64.67
2018-02-27T15:45:25.145Z,64.45
2018-02-27T15:47:52.850Z,65.11
2018-02-27T15:50:20.512Z,64.15
2018-02-27T15:52:48.108Z,64.59
2018-02-27T15:55:16.268Z,64.79
2018-02-27T15:57:43.902Z,65.01
2018-02-27T16:00:11.515Z,64.91
2018-02-27T16:02:39.107Z,65.42
2018-02-27T16:05:07.064Z,66.20
2018-02-27T16:07:35.084Z,66.97
2018-02-27T16:10:02.691Z,68.61
2018-02-27T16:12:30.286Z,67.46
2018-02-27T16:14:57.892Z,68.61
2018-02-27T16:17:25.492Z,69.91
2018-02-27T16:19:53.068Z,70.48
2018-02-27T16:22:20.956Z,70.89
2018-02-27T16:24:48.771Z,71.33
2018-02-27T16:27:17.410Z,71.94
2018-02-27T16:29:45.057Z,72.79
2018-02-27T16:32:12.624Z,73.96
2018-02-27T16:34:40.303Z,74.77
2018-02-27T16:37:08.501Z,75.74
2018-02-27T16:39:37.761Z,75.78
2018-02-27T16:42:05.382Z,75.69
2018-02-27T16:44:33.061Z,76.01
2018-02-27T16:47:00.647Z,75.62
2018-02-27T16:49:28.249Z,76.01
2018-02-27T16:51:55.877Z,75.99
2018-02-27T16:54:25.660Z,76.36
2018-02-27T16:56:53.272Z,76.58
2018-02-27T16:59:20.873Z,76.76
2018-02-27T17:01:48.512Z,77.05
2018-02-27T17:04:16.183Z,76.70
2018-02-27T17:06:43.762Z,77.18
2018-02-27T17:11:45.644Z,77.12
2018-02-27T17:14:13.276Z,77.34
2018-02-27T17:16:40.921Z,77.72
2018-02-27T17:19:09.099Z,77.29
2018-02-27T17:21:36.735Z,77.61
2018-02-27T17:24:04.504Z,77.79
2018-02-27T17:26:32.306Z,78.03
2018-02-27T17:28:59.970Z,77.77
2018-02-27T17:31:27.816Z,76.73
2018-02-27T17:33:55.523Z,77.00
2018-02-27T17:36:24.462Z,76.49
2018-02-27T17:38:52.086Z,77.00
2018-02-27T17:41:21.395Z,76.44
2018-02-27T17:43:49.119Z,75.65
2018-02-27T17:46:16.789Z,76.11
2018-02-27T17:48:44.420Z,75.86
2018-02-27T17:51:12.288Z,75.76
2018-02-27T17:53:40.035Z,75.94
2018-02-27T17:56:07.766Z,75.41
2018-02-27T17:58:35.546Z,75.92
2018-02-27T18:01:03.308Z,75.98
2018-02-27T18:03:31.725Z,76.56
2018-02-27T18:06:00.049Z,75.96
2018-02-27T18:08:28.694Z,76.12
2018-02-27T18:10:56.531Z,76.55
2018-02-27T18:13:24.706Z,77.00
2018-02-27T18:15:52.811Z,77.31
2018-02-27T18:18:21.204Z,77.46
2018-02-27T18:20:49.824Z,77.77
2018-02-27T18:23:18.118Z,77.91
2018-02-27T18:25:46.588Z,78.32
2018-02-27T18:28:18.222Z,78.21
2018-02-27T18:30:46.090Z,78.24
2018-02-27T18:33:14.688Z,78.78
2018-02-27T18:35:42.571Z,78.83
2018-02-27T18:38:11.235Z,78.72
2018-02-27T18:40:39.050Z,79.68
2018-02-27T18:43:07.158Z,79.83
2018-02-27T18:45:37.314Z,79.78
2018-02-27T18:48:05.232Z,79.26
2018-02-27T18:50:34.672Z,79.40
2018-02-27T18:53:02.523Z,79.44
2018-02-27T18:55:30.603Z,78.66
2018-02-27T18:57:59.136Z,77.44
2018-02-27T19:00:26.968Z,77.55
2018-02-27T19:02:56.150Z,77.30
2018-02-27T19:07:59.630Z,76.95
2018-02-27T19:10:29.922Z,76.56
2018-02-27T19:12:59.702Z,75.79
2018-02-27T19:15:34.287Z,75.19
2018-02-27T19:18:03.404Z,75.16
2018-02-27T19:20:31.572Z,75.87
2018-02-27T19:22:59.829Z,76.60
2018-02-27T19:25:30.821Z,76.59
2018-02-27T19:27:58.635Z,77.66
2018-02-27T19:30:26.542Z,78.12
2018-02-27T19:32:54.875Z,78.01
2018-02-27T19:35:22.801Z,77.13
2018-02-27T19:37:54.413Z,76.42
2018-02-27T19:40:23.365Z,75.81
2018-02-27T19:42:51.247Z,76.34
2018-02-27T19:45:31.726Z,76.40
2018-02-27T19:48:02.326Z,76.98
2018-02-27T19:50:30.833Z,77.71
2018-02-27T19:52:58.703Z,76.97
2018-02-27T19:55:26.672Z,76.56
2018-02-27T19:57:58.373Z,76.19
2018-02-27T20:00:26.396Z,76.25
2018-02-27T20:02:54.515Z,76.97
2018-02-27T20:05:23.714Z,77.91
2018-02-27T20:07:51.683Z,77.28
2018-02-27T20:10:19.664Z,78.04
2018-02-27T20:12:47.786Z,78.79
2018-02-27T20:15:16.354Z,78.13
2018-02-27T20:17:49.604Z,78.79
2018-02-27T20:20:17.348Z,78.45
2018-02-27T20:22:51.377Z,78.21
2018-02-27T20:25:20.255Z,77.19
2018-02-27T20:27:48.462Z,76.58
2018-02-27T20:30:16.274Z,76.45
2018-02-27T20:32:43.970Z,76.72
2018-02-27T20:35:12.476Z,76.48
2018-02-27T20:37:40.461Z,75.80
2018-02-27T20:40:08.206Z,75.37
2018-02-27T20:42:36.049Z,73.88
2018-02-27T20:45:04.990Z,73.19
2018-02-27T20:47:33.364Z,72.37
2018-02-27T20:50:01.103Z,72.77
2018-02-27T20:52:28.838Z,72.65
2018-02-27T20:54:56.575Z,73.26
2018-02-27T20:57:27.442Z,73.39
2018-02-27T20:59:55.104Z,73.73
2018-02-27T21:02:22.757Z,73.77
2018-02-27T21:04:50.434Z,73.24
2018-02-27T21:07:18.635Z,73.04
2018-02-27T21:09:46.718Z,72.91
2018-02-27T21:12:14.709Z,72.81
2018-02-27T21:14:42.321Z,72.26
2018-02-27T21:17:10.824Z,71.92
2018-02-27T21:19:38.598Z,71.99
2018-02-27T21:22:06.174Z,71.44
2018-02-27T21:24:33.798Z,71.21
2018-02-27T21:27:01.410Z,71.30
2018-02-27T21:29:29.397Z,71.74
2018-02-27T21:34:47.342Z,74.84
2018-02-27T21:37:15.067Z,75.92
2018-02-27T21:39:42.778Z,76.21
2018-02-27T21:42:10.920Z,76.15
2018-02-27T21:44:38.524Z,76.02
2018-02-27T21:47:06.577Z,75.66
2018-02-27T21:49:34.345Z,75.47
2018-02-27T21:52:02.005Z,75.23
2018-02-27T21:54:29.658Z,75.24
2018-02-27T21:56:57.319Z,75.27
2018-02-27T21:59:24.976Z,75.51
2018-02-27T22:01:52.591Z,75.00
2018-02-27T22:04:20.292Z,75.38
2018-02-27T22:06:47.981Z,75.09
2018-02-27T22:09:15.970Z,75.08
2018-02-27T22:11:43.713Z,74.83
2018-02-27T22:14:11.338Z,75.01
2018-02-27T22:16:38.948Z,75.07
2018-02-27T22:19:07.427Z,75.43
2018-02-27T22:21:35.372Z,73.86
2018-02-27T22:24:03.003Z,73.77
2018-02-27T22:26:30.683Z,73.10
2018-02-27T22:28:58.271Z,72.19
2018-02-27T22:31:25.939Z,71.76
2018-02-27T22:33:53.658Z,71.97
2018-02-27T22:36:21.504Z,72.52
2018-02-27T22:38:49.185Z,72.86
2018-02-27T22:41:16.933Z,72.68
2018-02-27T22:43:44.569Z,73.04
2018-02-27T22:46:12.420Z,72.58
2018-02-27T22:48:40.008Z,72.43
2018-02-27T22:51:08.165Z,71.84
2018-02-27T22:53:36.292Z,72.18
2018-02-27T22:56:03.918Z,71.64
2018-02-27T22:58:31.556Z,71.95
2018-02-27T23:00:59.198Z,72.59
2018-02-27T23:03:26.863Z,72.48
2018-02-27T23:05:54.459Z,72.59
2018-02-27T23:08:26.870Z,73.27
2018-02-27T23:10:54.491Z,74.43
2018-02-27T23:13:28.113Z,74.19
2018-02-27T23:15:55.896Z,74.17
2018-02-27T23:18:23.524Z,74.52
2018-02-27T23:20:51.769Z,74.24
2018-02-27T23:23:20.452Z,74.52
2018-02-27T23:26:07.405Z,74.19
2018-02-27T23:28:42.524Z,73.90
2018-02-27T23:31:11.673Z,74.18
2018-02-27T23:33:44.008Z,73.85
2018-02-27T23:36:11.659Z,74.26
2018-02-27T23:38:39.313Z,74.25
2018-02-27T23:41:07.247Z,73.41
2018-02-27T23:43:35.099Z,73.04
2018-02-27T23:46:02.676Z,73.14
2018-02-27T23:48:30.335Z,73.79
2018-02-27T23:50:57.916Z,74.32
2018-02-27T23:53:25.881Z,74.53
2018-02-27T23:55:53.791Z,74.71
2018-02-27T23:58:21.369Z,73.83
